sensor_id;sensor_type;location;lat;lon;timestamp;pressure;altitude;pressure_sealevel;temperature;humidity
50682;BME280;36779;52.168;20.878;2023-02-21T00:01:42;99118.08;;;6.48;77.99
50682;BME280;36779;52.168;20.878;2023-02-21T00:04:32;99117.12;;;6.46;78.07
50682;BME280;36779;52.168;20.878;2023-02-21T00:07:22;99118.83;;;6.46;78.03
50682;BME280;36779;52.168;20.878;2023-02-21T00:10:14;99117.15;;;6.47;78.16
50682;BME280;36779;52.168;20.878;2023-02-21T00:13:04;99118.77;;;6.45;78.15
50682;BME280;36779;52.168;20.878;2023-02-21T00:15:54;99117.61;;;6.47;78.18
50682;BME280;36779;52.168;20.878;2023-02-21T00:18:44;99111.16;;;6.50;78.17
50682;BME280;36779;52.168;20.878;2023-02-21T00:21:34;99110.70;;;6.49;78.09
50682;BME280;36779;52.168;20.878;2023-02-21T00:24:24;99125.41;;;6.48;78.08
50682;BME280;36779;52.168;20.878;2023-02-21T00:27:14;99115.63;;;6.48;78.07
50682;BME280;36779;52.168;20.878;2023-02-21T00:30:05;99118.15;;;6.47;78.12
50682;BME280;36779;52.168;20.878;2023-02-21T00:32:56;99113.34;;;6.46;77.96
50682;BME280;36779;52.168;20.878;2023-02-21T00:35:45;99113.16;;;6.46;78.14
50682;BME280;36779;52.168;20.878;2023-02-21T00:38:37;99110.52;;;6.46;78.17
50682;BME280;36779;52.168;20.878;2023-02-21T00:41:27;99112.25;;;6.48;78.20
50682;BME280;36779;52.168;20.878;2023-02-21T00:44:17;99110.33;;;6.51;78.14
50682;BME280;36779;52.168;20.878;2023-02-21T00:47:07;99110.59;;;6.53;78.22
50682;BME280;36779;52.168;20.878;2023-02-21T00:49:59;99105.35;;;6.57;78.15
50682;BME280;36779;52.168;20.878;2023-02-21T00:52:48;99111.61;;;6.58;78.03
50682;BME280;36779;52.168;20.878;2023-02-21T00:55:39;99109.36;;;6.55;77.88
50682;BME280;36779;52.168;20.878;2023-02-21T00:58:29;99115.81;;;6.49;77.82
50682;BME280;36779;52.168;20.878;2023-02-21T01:01:19;99112.80;;;6.43;77.91
50682;BME280;36779;52.168;20.878;2023-02-21T01:04:08;99112.59;;;6.40;77.77
50682;BME280;36779;52.168;20.878;2023-02-21T01:07:01;99117.79;;;6.36;77.84
50682;BME280;36779;52.168;20.878;2023-02-21T01:09:51;99119.49;;;6.33;77.87
50682;BME280;36779;52.168;20.878;2023-02-21T01:12:41;99112.27;;;6.31;77.98
50682;BME280;36779;52.168;20.878;2023-02-21T01:15:31;99111.47;;;6.29;77.90
50682;BME280;36779;52.168;20.878;2023-02-21T01:18:22;99111.04;;;6.27;77.83
50682;BME280;36779;52.168;20.878;2023-02-21T01:21:14;99114.34;;;6.22;77.83
50682;BME280;36779;52.168;20.878;2023-02-21T01:24:05;99112.98;;;6.18;77.81
50682;BME280;36779;52.168;20.878;2023-02-21T01:26:55;99109.50;;;6.16;77.82
50682;BME280;36779;52.168;20.878;2023-02-21T01:29:45;99108.71;;;6.16;77.80
50682;BME280;36779;52.168;20.878;2023-02-21T01:32:36;99102.80;;;6.15;77.76
50682;BME280;36779;52.168;20.878;2023-02-21T01:35:26;99104.64;;;6.16;77.82
50682;BME280;36779;52.168;20.878;2023-02-21T01:38:16;99103.89;;;6.18;77.87
50682;BME280;36779;52.168;20.878;2023-02-21T01:41:05;99099.85;;;6.21;77.87
50682;BME280;36779;52.168;20.878;2023-02-21T01:44:00;99096.11;;;6.24;77.86
50682;BME280;36779;52.168;20.878;2023-02-21T01:46:50;99100.38;;;6.29;77.97
50682;BME280;36779;52.168;20.878;2023-02-21T01:49:41;99094.10;;;6.31;77.80
50682;BME280;36779;52.168;20.878;2023-02-21T01:52:31;99092.30;;;6.32;77.76
50682;BME280;36779;52.168;20.878;2023-02-21T01:55:22;99091.19;;;6.31;77.82
50682;BME280;36779;52.168;20.878;2023-02-21T01:58:12;99089.37;;;6.28;77.62
50682;BME280;36779;52.168;20.878;2023-02-21T02:01:02;99089.77;;;6.23;77.67
50682;BME280;36779;52.168;20.878;2023-02-21T02:03:52;99093.56;;;6.20;77.62
50682;BME280;36779;52.168;20.878;2023-02-21T02:06:41;99094.53;;;6.18;77.58
50682;BME280;36779;52.168;20.878;2023-02-21T02:09:32;99095.77;;;6.14;77.62
50682;BME280;36779;52.168;20.878;2023-02-21T02:12:36;99096.55;;;6.10;77.49
50682;BME280;36779;52.168;20.878;2023-02-21T02:15:23;99098.65;;;6.09;77.69
50682;BME280;36779;52.168;20.878;2023-02-21T02:18:24;99104.14;;;6.07;77.67
50682;BME280;36779;52.168;20.878;2023-02-21T02:21:36;99111.42;;;6.03;77.59
50682;BME280;36779;52.168;20.878;2023-02-21T02:24:31;99104.73;;;6.00;77.55
50682;BME280;36779;52.168;20.878;2023-02-21T02:27:36;99107.09;;;5.98;77.39
50682;BME280;36779;52.168;20.878;2023-02-21T02:30:39;99100.53;;;5.96;77.48
50682;BME280;36779;52.168;20.878;2023-02-21T02:36:27;99107.48;;;5.90;77.42
50682;BME280;36779;52.168;20.878;2023-02-21T02:39:07;99108.29;;;5.89;77.50
50682;BME280;36779;52.168;20.878;2023-02-21T02:41:49;99105.21;;;5.88;77.48
50682;BME280;36779;52.168;20.878;2023-02-21T02:44:33;99110.02;;;5.88;77.47
50682;BME280;36779;52.168;20.878;2023-02-21T02:47:12;99109.92;;;5.87;77.43
50682;BME280;36779;52.168;20.878;2023-02-21T02:49:45;99113.36;;;5.85;77.28
50682;BME280;36779;52.168;20.878;2023-02-21T02:52:19;99110.52;;;5.80;77.32
50682;BME280;36779;52.168;20.878;2023-02-21T02:55:00;99103.64;;;5.75;77.23
50682;BME280;36779;52.168;20.878;2023-02-21T02:57:34;99109.09;;;5.72;77.24
50682;BME280;36779;52.168;20.878;2023-02-21T03:00:13;99100.59;;;5.69;77.32
50682;BME280;36779;52.168;20.878;2023-02-21T03:03:02;99105.39;;;5.70;77.41
50682;BME280;36779;52.168;20.878;2023-02-21T03:05:46;99104.20;;;5.70;77.23
50682;BME280;36779;52.168;20.878;2023-02-21T03:08:28;99101.61;;;5.68;77.23
50682;BME280;36779;52.168;20.878;2023-02-21T03:11:10;99101.77;;;5.66;77.26
50682;BME280;36779;52.168;20.878;2023-02-21T03:13:50;99101.47;;;5.62;77.22
50682;BME280;36779;52.168;20.878;2023-02-21T03:16:27;99097.92;;;5.59;77.23
50682;BME280;36779;52.168;20.878;2023-02-21T03:19:04;99098.16;;;5.62;77.41
50682;BME280;36779;52.168;20.878;2023-02-21T03:21:42;99098.27;;;5.68;77.32
50682;BME280;36779;52.168;20.878;2023-02-21T03:24:19;99098.09;;;5.71;77.30
50682;BME280;36779;52.168;20.878;2023-02-21T03:26:56;99089.92;;;5.70;77.27
50682;BME280;36779;52.168;20.878;2023-02-21T03:29:51;99090.25;;;5.68;77.22
50682;BME280;36779;52.168;20.878;2023-02-21T03:32:30;99091.80;;;5.67;77.19
50682;BME280;36779;52.168;20.878;2023-02-21T03:35:05;99087.27;;;5.66;77.15
50682;BME280;36779;52.168;20.878;2023-02-21T03:37:40;99099.16;;;5.66;77.05
50682;BME280;36779;52.168;20.878;2023-02-21T03:40:17;99106.07;;;5.64;77.01
50682;BME280;36779;52.168;20.878;2023-02-21T03:42:53;99097.81;;;5.63;76.97
50682;BME280;36779;52.168;20.878;2023-02-21T03:45:28;99098.77;;;5.61;77.03
50682;BME280;36779;52.168;20.878;2023-02-21T03:48:16;99093.06;;;5.58;76.96
50682;BME280;36779;52.168;20.878;2023-02-21T03:51:04;99088.73;;;5.54;76.86
50682;BME280;36779;52.168;20.878;2023-02-21T03:53:39;99089.34;;;5.49;76.74
50682;BME280;36779;52.168;20.878;2023-02-21T03:56:11;99094.81;;;5.45;76.69
50682;BME280;36779;52.168;20.878;2023-02-21T03:58:56;99095.80;;;5.42;76.78
50682;BME280;36779;52.168;20.878;2023-02-21T04:01:29;99099.67;;;5.39;76.69
50682;BME280;36779;52.168;20.878;2023-02-21T04:04:02;99099.63;;;5.34;76.66
50682;BME280;36779;52.168;20.878;2023-02-21T04:06:35;99100.02;;;5.31;76.66
50682;BME280;36779;52.168;20.878;2023-02-21T04:09:07;99108.92;;;5.28;76.61
50682;BME280;36779;52.168;20.878;2023-02-21T04:11:43;99106.90;;;5.25;76.62
50682;BME280;36779;52.168;20.878;2023-02-21T04:14:15;99105.38;;;5.23;76.58
50682;BME280;36779;52.168;20.878;2023-02-21T04:16:48;99101.08;;;5.22;76.58
50682;BME280;36779;52.168;20.878;2023-02-21T04:19:20;99111.10;;;5.19;76.59
50682;BME280;36779;52.168;20.878;2023-02-21T04:21:53;99113.69;;;5.14;76.57
50682;BME280;36779;52.168;20.878;2023-02-21T04:24:27;99111.42;;;5.12;76.50
50682;BME280;36779;52.168;20.878;2023-02-21T04:27:02;99108.83;;;5.10;76.50
50682;BME280;36779;52.168;20.878;2023-02-21T04:29:37;99108.02;;;5.08;76.48
50682;BME280;36779;52.168;20.878;2023-02-21T04:32:10;99103.16;;;5.07;76.43
50682;BME280;36779;52.168;20.878;2023-02-21T04:34:42;99106.17;;;5.04;76.29
50682;BME280;36779;52.168;20.878;2023-02-21T04:37:15;99104.27;;;4.98;76.30
50682;BME280;36779;52.168;20.878;2023-02-21T04:39:47;99105.02;;;4.94;76.37
50682;BME280;36779;52.168;20.878;2023-02-21T04:42:20;99105.83;;;4.91;76.35
50682;BME280;36779;52.168;20.878;2023-02-21T04:44:52;99115.68;;;4.88;76.24
50682;BME280;36779;52.168;20.878;2023-02-21T04:47:31;99111.03;;;4.85;76.31
50682;BME280;36779;52.168;20.878;2023-02-21T04:50:03;99118.14;;;4.83;76.35
50682;BME280;36779;52.168;20.878;2023-02-21T04:52:36;99126.98;;;4.82;76.27
50682;BME280;36779;52.168;20.878;2023-02-21T04:55:10;99131.10;;;4.82;76.40
50682;BME280;36779;52.168;20.878;2023-02-21T04:57:42;99130.22;;;4.82;76.39
50682;BME280;36779;52.168;20.878;2023-02-21T05:00:16;99136.66;;;4.82;76.52
50682;BME280;36779;52.168;20.878;2023-02-21T05:02:48;99142.60;;;4.88;76.49
50682;BME280;36779;52.168;20.878;2023-02-21T05:05:21;99140.39;;;4.92;76.50
50682;BME280;36779;52.168;20.878;2023-02-21T05:07:53;99145.72;;;4.94;76.36
50682;BME280;36779;52.168;20.878;2023-02-21T05:10:29;99142.09;;;4.95;76.26
50682;BME280;36779;52.168;20.878;2023-02-21T05:13:15;99142.30;;;4.98;76.34
50682;BME280;36779;52.168;20.878;2023-02-21T05:15:47;99141.55;;;5.00;76.41
50682;BME280;36779;52.168;20.878;2023-02-21T05:18:20;99131.77;;;5.03;76.40
50682;BME280;36779;52.168;20.878;2023-02-21T05:20:56;99131.85;;;5.07;76.50
50682;BME280;36779;52.168;20.878;2023-02-21T05:23:33;99135.58;;;5.11;76.46
50682;BME280;36779;52.168;20.878;2023-02-21T05:26:08;99138.45;;;5.13;76.32
50682;BME280;36779;52.168;20.878;2023-02-21T05:28:44;99134.41;;;5.16;76.30
50682;BME280;36779;52.168;20.878;2023-02-21T05:31:16;99138.08;;;5.17;76.24
50682;BME280;36779;52.168;20.878;2023-02-21T05:33:49;99144.85;;;5.18;76.31
50682;BME280;36779;52.168;20.878;2023-02-21T05:36:21;99148.14;;;5.17;76.24
50682;BME280;36779;52.168;20.878;2023-02-21T05:38:56;99149.93;;;5.16;76.09
50682;BME280;36779;52.168;20.878;2023-02-21T05:41:28;99154.30;;;5.17;76.16
50682;BME280;36779;52.168;20.878;2023-02-21T05:44:02;99155.95;;;5.16;76.18
50682;BME280;36779;52.168;20.878;2023-02-21T05:46:35;99157.46;;;5.17;76.12
50682;BME280;36779;52.168;20.878;2023-02-21T05:49:07;99152.45;;;5.19;76.17
50682;BME280;36779;52.168;20.878;2023-02-21T05:51:42;99154.27;;;5.21;76.12
50682;BME280;36779;52.168;20.878;2023-02-21T05:54:18;99158.41;;;5.22;76.18
50682;BME280;36779;52.168;20.878;2023-02-21T05:56:51;99156.23;;;5.21;76.06
50682;BME280;36779;52.168;20.878;2023-02-21T05:59:24;99165.22;;;5.20;76.03
50682;BME280;36779;52.168;20.878;2023-02-21T06:01:56;99164.12;;;5.21;76.12
50682;BME280;36779;52.168;20.878;2023-02-21T06:04:30;99163.88;;;5.23;76.08
50682;BME280;36779;52.168;20.878;2023-02-21T06:07:03;99163.41;;;5.24;76.12
50682;BME280;36779;52.168;20.878;2023-02-21T06:09:35;99157.86;;;5.23;75.95
50682;BME280;36779;52.168;20.878;2023-02-21T06:12:07;99160.59;;;5.23;75.96
50682;BME280;36779;52.168;20.878;2023-02-21T06:14:39;99166.17;;;5.22;75.88
50682;BME280;36779;52.168;20.878;2023-02-21T06:17:11;99168.64;;;5.21;75.83
50682;BME280;36779;52.168;20.878;2023-02-21T06:19:43;99174.64;;;5.23;75.98
50682;BME280;36779;52.168;20.878;2023-02-21T06:22:15;99173.39;;;5.25;75.79
50682;BME280;36779;52.168;20.878;2023-02-21T06:24:47;99164.34;;;5.27;75.85
50682;BME280;36779;52.168;20.878;2023-02-21T06:27:22;99164.61;;;5.30;75.88
50682;BME280;36779;52.168;20.878;2023-02-21T06:29:54;99163.34;;;5.30;76.00
50682;BME280;36779;52.168;20.878;2023-02-21T06:32:27;99168.63;;;5.32;75.81
50682;BME280;36779;52.168;20.878;2023-02-21T06:35:02;99172.78;;;5.32;75.84
50682;BME280;36779;52.168;20.878;2023-02-21T06:37:34;99183.29;;;5.33;75.80
50682;BME280;36779;52.168;20.878;2023-02-21T06:40:07;99189.15;;;5.34;75.79
50682;BME280;36779;52.168;20.878;2023-02-21T06:42:39;99188.30;;;5.35;75.79
50682;BME280;36779;52.168;20.878;2023-02-21T06:45:12;99189.06;;;5.38;75.73
50682;BME280;36779;52.168;20.878;2023-02-21T06:47:44;99184.08;;;5.42;75.70
50682;BME280;36779;52.168;20.878;2023-02-21T06:50:17;99181.61;;;5.46;75.82
50682;BME280;36779;52.168;20.878;2023-02-21T06:52:49;99190.25;;;5.48;75.65
50682;BME280;36779;52.168;20.878;2023-02-21T06:55:23;99186.71;;;5.48;75.63
50682;BME280;36779;52.168;20.878;2023-02-21T06:57:55;99191.04;;;5.49;75.74
50682;BME280;36779;52.168;20.878;2023-02-21T07:00:30;99196.25;;;5.49;75.73
50682;BME280;36779;52.168;20.878;2023-02-21T07:03:02;99205.19;;;5.51;75.67
50682;BME280;36779;52.168;20.878;2023-02-21T07:05:34;99207.45;;;5.53;75.64
50682;BME280;36779;52.168;20.878;2023-02-21T07:08:08;99215.13;;;5.56;75.56
50682;BME280;36779;52.168;20.878;2023-02-21T07:10:40;99222.63;;;5.56;75.50
50682;BME280;36779;52.168;20.878;2023-02-21T07:13:12;99226.23;;;5.56;75.54
50682;BME280;36779;52.168;20.878;2023-02-21T07:15:45;99228.54;;;5.54;75.58
50682;BME280;36779;52.168;20.878;2023-02-21T07:18:17;99227.94;;;5.54;75.51
50682;BME280;36779;52.168;20.878;2023-02-21T07:20:49;99237.45;;;5.54;75.60
50682;BME280;36779;52.168;20.878;2023-02-21T07:23:21;99250.84;;;5.55;75.55
50682;BME280;36779;52.168;20.878;2023-02-21T07:25:53;99256.66;;;5.51;75.31
50682;BME280;36779;52.168;20.878;2023-02-21T07:28:28;99269.46;;;5.48;75.42
50682;BME280;36779;52.168;20.878;2023-02-21T07:31:01;99268.11;;;5.46;75.35
50682;BME280;36779;52.168;20.878;2023-02-21T07:33:34;99274.18;;;5.45;75.33
50682;BME280;36779;52.168;20.878;2023-02-21T07:36:06;99278.70;;;5.46;75.48
50682;BME280;36779;52.168;20.878;2023-02-21T07:38:39;99278.59;;;5.47;75.45
50682;BME280;36779;52.168;20.878;2023-02-21T07:41:12;99288.67;;;5.48;75.37
50682;BME280;36779;52.168;20.878;2023-02-21T07:43:45;99290.58;;;5.50;75.42
50682;BME280;36779;52.168;20.878;2023-02-21T07:46:17;99302.75;;;5.50;75.37
50682;BME280;36779;52.168;20.878;2023-02-21T07:48:49;99304.59;;;5.50;75.52
50682;BME280;36779;52.168;20.878;2023-02-21T07:51:22;99310.04;;;5.50;75.38
50682;BME280;36779;52.168;20.878;2023-02-21T07:53:58;99315.85;;;5.51;75.50
50682;BME280;36779;52.168;20.878;2023-02-21T07:56:30;99324.67;;;5.53;75.44
50682;BME280;36779;52.168;20.878;2023-02-21T07:59:02;99330.65;;;5.55;75.39
50682;BME280;36779;52.168;20.878;2023-02-21T08:01:34;99332.61;;;5.56;75.40
50682;BME280;36779;52.168;20.878;2023-02-21T08:04:07;99331.39;;;5.58;75.52
50682;BME280;36779;52.168;20.878;2023-02-21T08:06:39;99332.14;;;5.61;75.52
50682;BME280;36779;52.168;20.878;2023-02-21T08:09:11;99331.10;;;5.64;75.42
50682;BME280;36779;52.168;20.878;2023-02-21T08:11:43;99330.16;;;5.68;75.43
50682;BME280;36779;52.168;20.878;2023-02-21T08:14:16;99340.22;;;5.75;75.48
50682;BME280;36779;52.168;20.878;2023-02-21T08:16:48;99344.27;;;5.82;75.42
50682;BME280;36779;52.168;20.878;2023-02-21T08:19:20;99344.66;;;5.88;75.45
50682;BME280;36779;52.168;20.878;2023-02-21T08:21:52;99350.39;;;5.93;75.44
50682;BME280;36779;52.168;20.878;2023-02-21T08:24:25;99352.03;;;5.96;75.47
50682;BME280;36779;52.168;20.878;2023-02-21T08:27:00;99355.81;;;5.99;75.34
50682;BME280;36779;52.168;20.878;2023-02-21T08:29:32;99359.20;;;6.00;75.48
50682;BME280;36779;52.168;20.878;2023-02-21T08:32:05;99366.83;;;6.03;75.38
50682;BME280;36779;52.168;20.878;2023-02-21T08:34:37;99367.13;;;6.05;75.33
50682;BME280;36779;52.168;20.878;2023-02-21T08:37:09;99371.64;;;6.08;75.37
50682;BME280;36779;52.168;20.878;2023-02-21T08:39:48;99373.04;;;6.09;75.35
50682;BME280;36779;52.168;20.878;2023-02-21T08:42:20;99375.36;;;6.11;75.33
50682;BME280;36779;52.168;20.878;2023-02-21T08:44:53;99382.38;;;6.11;75.33
50682;BME280;36779;52.168;20.878;2023-02-21T08:47:25;99386.07;;;6.10;75.24
50682;BME280;36779;52.168;20.878;2023-02-21T08:49:57;99389.16;;;6.09;75.29
50682;BME280;36779;52.168;20.878;2023-02-21T08:52:29;99393.84;;;6.10;75.18
50682;BME280;36779;52.168;20.878;2023-02-21T08:55:02;99393.15;;;6.10;75.26
50682;BME280;36779;52.168;20.878;2023-02-21T08:57:34;99402.35;;;6.11;75.26
50682;BME280;36779;52.168;20.878;2023-02-21T09:00:11;99405.95;;;6.12;75.30
50682;BME280;36779;52.168;20.878;2023-02-21T09:02:44;99408.90;;;6.11;75.30
50682;BME280;36779;52.168;20.878;2023-02-21T09:05:19;99418.48;;;6.07;75.05
50682;BME280;36779;52.168;20.878;2023-02-21T09:07:55;99424.83;;;6.03;75.21
50682;BME280;36779;52.168;20.878;2023-02-21T09:10:31;99432.70;;;6.02;75.11
50682;BME280;36779;52.168;20.878;2023-02-21T09:13:04;99436.55;;;6.02;75.14
50682;BME280;36779;52.168;20.878;2023-02-21T09:15:36;99439.66;;;6.00;75.01
50682;BME280;36779;52.168;20.878;2023-02-21T09:18:09;99440.83;;;5.99;75.13
50682;BME280;36779;52.168;20.878;2023-02-21T09:20:43;99441.67;;;6.01;75.25
50682;BME280;36779;52.168;20.878;2023-02-21T09:23:22;99446.36;;;6.03;75.22
50682;BME280;36779;52.168;20.878;2023-02-21T09:25:54;99447.39;;;6.05;75.28
50682;BME280;36779;52.168;20.878;2023-02-21T09:28:28;99448.98;;;6.07;75.16
50682;BME280;36779;52.168;20.878;2023-02-21T09:31:01;99459.39;;;6.09;75.20
50682;BME280;36779;52.168;20.878;2023-02-21T09:33:36;99458.13;;;6.14;75.38
50682;BME280;36779;52.168;20.878;2023-02-21T09:36:11;99457.48;;;6.21;75.28
50682;BME280;36779;52.168;20.878;2023-02-21T09:38:44;99460.54;;;6.25;75.21
50682;BME280;36779;52.168;20.878;2023-02-21T09:41:16;99461.71;;;6.27;75.23
50682;BME280;36779;52.168;20.878;2023-02-21T09:43:50;99460.21;;;6.35;75.43
50682;BME280;36779;52.168;20.878;2023-02-21T09:46:31;99457.85;;;6.63;75.71
50682;BME280;36779;52.168;20.878;2023-02-21T09:49:06;99465.51;;;6.83;75.48
50682;BME280;36779;52.168;20.878;2023-02-21T09:51:41;99472.32;;;7.00;75.67
50682;BME280;36779;52.168;20.878;2023-02-21T09:54:21;99474.03;;;7.47;76.44
50682;BME280;36779;52.168;20.878;2023-02-21T09:57:00;99482.27;;;7.83;75.74
50682;BME280;36779;52.168;20.878;2023-02-21T09:59:34;99485.86;;;8.13;76.36
50682;BME280;36779;52.168;20.878;2023-02-21T10:02:27;99489.41;;;8.47;75.70
50682;BME280;36779;52.168;20.878;2023-02-21T10:05:11;99494.71;;;8.47;74.93
50682;BME280;36779;52.168;20.878;2023-02-21T10:07:57;99501.59;;;8.34;74.64
50682;BME280;36779;52.168;20.878;2023-02-21T10:10:37;99503.94;;;8.24;74.51
50682;BME280;36779;52.168;20.878;2023-02-21T10:13:20;99508.71;;;8.13;74.40
50682;BME280;36779;52.168;20.878;2023-02-21T10:15:57;99518.86;;;7.98;74.57
50682;BME280;36779;52.168;20.878;2023-02-21T10:18:37;99516.76;;;7.88;74.54
50682;BME280;36779;52.168;20.878;2023-02-21T10:21:16;99522.51;;;7.84;74.83
50682;BME280;36779;52.168;20.878;2023-02-21T10:23:53;99529.00;;;7.91;74.88
50682;BME280;36779;52.168;20.878;2023-02-21T10:26:32;99529.69;;;7.92;74.74
50682;BME280;36779;52.168;20.878;2023-02-21T10:29:18;99528.66;;;7.83;74.81
50682;BME280;36779;52.168;20.878;2023-02-21T10:31:55;99530.06;;;7.84;74.88
50682;BME280;36779;52.168;20.878;2023-02-21T10:34:34;99529.48;;;7.86;74.82
50682;BME280;36779;52.168;20.878;2023-02-21T10:37:20;99532.35;;;7.86;74.95
50682;BME280;36779;52.168;20.878;2023-02-21T10:39:57;99534.34;;;7.87;75.07
50682;BME280;36779;52.168;20.878;2023-02-21T10:42:37;99531.30;;;7.89;74.94
50682;BME280;36779;52.168;20.878;2023-02-21T10:45:13;99530.46;;;7.92;74.95
50682;BME280;36779;52.168;20.878;2023-02-21T10:47:57;99535.86;;;7.92;74.86
50682;BME280;36779;52.168;20.878;2023-02-21T10:50:41;99533.02;;;7.97;75.08
50682;BME280;36779;52.168;20.878;2023-02-21T10:53:27;99532.71;;;8.02;75.05
50682;BME280;36779;52.168;20.878;2023-02-21T10:56:24;99532.86;;;8.02;75.00
50682;BME280;36779;52.168;20.878;2023-02-21T10:59:02;99533.58;;;8.02;74.93
50682;BME280;36779;52.168;20.878;2023-02-21T11:01:40;99539.10;;;8.04;75.08
50682;BME280;36779;52.168;20.878;2023-02-21T11:04:26;99542.46;;;8.20;75.63
50682;BME280;36779;52.168;20.878;2023-02-21T11:07:02;99547.91;;;8.40;75.51
50682;BME280;36779;52.168;20.878;2023-02-21T11:09:39;99547.10;;;8.62;75.84
50682;BME280;36779;52.168;20.878;2023-02-21T11:12:21;99552.36;;;8.83;75.49
50682;BME280;36779;52.168;20.878;2023-02-21T11:15:16;99559.93;;;8.85;75.08
50682;BME280;36779;52.168;20.878;2023-02-21T11:18:03;99564.51;;;8.74;74.55
50682;BME280;36779;52.168;20.878;2023-02-21T11:20:36;99570.20;;;8.64;74.66
50682;BME280;36779;52.168;20.878;2023-02-21T11:23:21;99564.93;;;8.60;74.65
50682;BME280;36779;52.168;20.878;2023-02-21T11:25:58;99575.52;;;8.55;74.56
50682;BME280;36779;52.168;20.878;2023-02-21T11:28:39;99579.66;;;8.44;74.34
50682;BME280;36779;52.168;20.878;2023-02-21T11:31:20;99574.73;;;8.30;74.20
50682;BME280;36779;52.168;20.878;2023-02-21T11:34:01;99576.24;;;8.20;74.28
50682;BME280;36779;52.168;20.878;2023-02-21T11:36:34;99579.92;;;8.11;74.30
50682;BME280;36779;52.168;20.878;2023-02-21T11:39:15;99580.40;;;7.99;74.24
50682;BME280;36779;52.168;20.878;2023-02-21T11:41:50;99584.91;;;7.94;74.29
50682;BME280;36779;52.168;20.878;2023-02-21T11:44:31;99583.94;;;7.91;74.60
50682;BME280;36779;52.168;20.878;2023-02-21T11:47:10;99585.04;;;7.94;74.41
50682;BME280;36779;52.168;20.878;2023-02-21T11:49:53;99579.23;;;8.04;74.76
50682;BME280;36779;52.168;20.878;2023-02-21T11:52:31;99582.48;;;8.21;75.10
50682;BME280;36779;52.168;20.878;2023-02-21T11:55:13;99581.95;;;8.34;74.76
50682;BME280;36779;52.168;20.878;2023-02-21T11:57:51;99582.54;;;8.30;74.48
50682;BME280;36779;52.168;20.878;2023-02-21T12:00:32;99589.86;;;8.22;74.23
50682;BME280;36779;52.168;20.878;2023-02-21T12:03:26;99590.15;;;8.08;74.04
50682;BME280;36779;52.168;20.878;2023-02-21T12:06:05;99593.92;;;8.00;74.26
50682;BME280;36779;52.168;20.878;2023-02-21T12:08:49;99592.45;;;8.13;74.61
50682;BME280;36779;52.168;20.878;2023-02-21T12:14:30;99590.60;;;8.38;74.81
50682;BME280;36779;52.168;20.878;2023-02-21T12:17:13;99594.59;;;8.49;74.71
50682;BME280;36779;52.168;20.878;2023-02-21T12:23:04;99596.73;;;8.74;74.76
50682;BME280;36779;52.168;20.878;2023-02-21T12:25:50;99593.98;;;8.83;74.62
50682;BME280;36779;52.168;20.878;2023-02-21T17:11:41;99895.38;;;5.64;74.25
50682;BME280;36779;52.168;20.878;2023-02-21T17:14:14;99901.23;;;5.65;74.33
50682;BME280;36779;52.168;20.878;2023-02-21T17:16:47;99900.70;;;5.68;74.34
50682;BME280;36779;52.168;20.878;2023-02-21T17:19:20;99910.39;;;5.70;74.35
50682;BME280;36779;52.168;20.878;2023-02-21T17:21:53;99911.42;;;5.70;74.41
50682;BME280;36779;52.168;20.878;2023-02-21T17:24:28;99908.23;;;5.70;74.30
50682;BME280;36779;52.168;20.878;2023-02-21T17:27:02;99912.02;;;5.69;74.36
50682;BME280;36779;52.168;20.878;2023-02-21T17:29:34;99916.46;;;5.67;74.34
50682;BME280;36779;52.168;20.878;2023-02-21T17:32:08;99922.15;;;5.64;74.32
50682;BME280;36779;52.168;20.878;2023-02-21T17:34:40;99923.03;;;5.62;74.23
50682;BME280;36779;52.168;20.878;2023-02-21T17:37:13;99926.86;;;5.61;74.24
50682;BME280;36779;52.168;20.878;2023-02-21T17:39:45;99925.64;;;5.61;74.25
50682;BME280;36779;52.168;20.878;2023-02-21T17:42:22;99930.06;;;5.61;74.19
50682;BME280;36779;52.168;20.878;2023-02-21T17:44:55;99932.67;;;5.61;74.13
50682;BME280;36779;52.168;20.878;2023-02-21T17:47:29;99930.36;;;5.61;74.26
50682;BME280;36779;52.168;20.878;2023-02-21T17:50:02;99932.25;;;5.62;74.16
50682;BME280;36779;52.168;20.878;2023-02-21T17:52:35;99934.37;;;5.62;74.22
50682;BME280;36779;52.168;20.878;2023-02-21T17:55:09;99937.89;;;5.60;74.32
50682;BME280;36779;52.168;20.878;2023-02-21T17:57:44;99936.38;;;5.59;74.23
50682;BME280;36779;52.168;20.878;2023-02-21T18:00:20;99942.55;;;5.57;74.20
50682;BME280;36779;52.168;20.878;2023-02-21T18:02:55;99945.42;;;5.55;74.31
50682;BME280;36779;52.168;20.878;2023-02-21T18:05:27;99948.52;;;5.54;74.30
50682;BME280;36779;52.168;20.878;2023-02-21T18:08:00;99950.31;;;5.53;74.22
50682;BME280;36779;52.168;20.878;2023-02-21T18:10:32;99952.56;;;5.54;74.17
50682;BME280;36779;52.168;20.878;2023-02-21T18:13:05;99954.45;;;5.54;74.31
50682;BME280;36779;52.168;20.878;2023-02-21T18:15:37;99957.06;;;5.55;74.28
50682;BME280;36779;52.168;20.878;2023-02-21T18:18:09;99957.59;;;5.55;74.25
50682;BME280;36779;52.168;20.878;2023-02-21T18:20:42;99960.16;;;5.54;74.35
50682;BME280;36779;52.168;20.878;2023-02-21T18:23:15;99956.77;;;5.52;74.27
50682;BME280;36779;52.168;20.878;2023-02-21T18:25:48;99955.62;;;5.51;74.38
50682;BME280;36779;52.168;20.878;2023-02-21T18:28:20;99962.73;;;5.51;74.26
50682;BME280;36779;52.168;20.878;2023-02-21T18:30:52;99963.16;;;5.48;74.22
50682;BME280;36779;52.168;20.878;2023-02-21T18:33:26;99962.38;;;5.45;74.16
50682;BME280;36779;52.168;20.878;2023-02-21T18:35:59;99965.02;;;5.42;74.09
50682;BME280;36779;52.168;20.878;2023-02-21T18:38:31;99965.41;;;5.38;74.18
50682;BME280;36779;52.168;20.878;2023-02-21T18:41:04;99965.63;;;5.36;74.16
50682;BME280;36779;52.168;20.878;2023-02-21T18:43:39;99962.16;;;5.31;74.21
50682;BME280;36779;52.168;20.878;2023-02-21T18:46:15;99966.80;;;5.27;74.12
50682;BME280;36779;52.168;20.878;2023-02-21T18:48:48;99965.46;;;5.24;74.15
50682;BME280;36779;52.168;20.878;2023-02-21T18:51:21;99972.59;;;5.20;74.13